Time;durP1;ratioP1;P1;durP2;ratioP2;P2;SDS_P1;SDS_P2;PMS_P1;PMS_P2;Temp;Humidity;BMP_temperature;BMP_pressure;BME280_temperature;BME280_humidity;BME280_pressure;Samples;Min_cycle;Max_cycle;Signal;HPM_P1;HPM_P2
2021/04/08 00:02:57;;;;;;;9.10;4.57;;;;;2.90;101921.00;;;;9677530;30;20203;-77
2021/04/08 00:07:59;;;;;;;7.90;3.80;;;;;2.90;101922.00;;;;9691399;30;20204;-77
2021/04/08 00:13:00;;;;;;;9.17;4.23;;;;;2.90;101924.00;;;;9667662;30;20212;-77
2021/04/08 00:18:02;;;;;;;6.47;4.20;;;;;2.80;101923.00;;;;9670266;30;20201;-77
2021/04/08 00:23:03;;;;;;;7.00;4.27;;;;;2.80;101924.00;;;;9656780;30;20674;-77
2021/04/08 00:28:06;;;;;;;9.47;4.50;;;;;2.80;101931.00;;;;9656026;30;20229;-77
2021/04/08 00:33:07;;;;;;;6.10;3.73;;;;;2.80;101928.00;;;;9662407;30;20207;-77
2021/04/08 00:38:09;;;;;;;5.37;3.63;;;;;2.80;101939.00;;;;9705874;30;20199;-77
2021/04/08 00:43:11;;;;;;;5.33;3.77;;;;;2.80;101934.00;;;;9669514;30;20597;-77
2021/04/08 00:48:12;;;;;;;7.77;4.40;;;;;2.70;101920.00;;;;9676421;30;20223;-77
2021/04/08 00:53:17;;;;;;;6.73;4.73;;;;;2.70;101923.00;;;;9677297;30;20243;-77
2021/04/08 00:58:20;;;;;;;6.53;4.77;;;;;2.60;101925.00;;;;9690629;30;20247;-77
2021/04/08 01:03:22;;;;;;;8.30;4.57;;;;;2.60;101943.00;;;;9704808;30;20207;-77
2021/04/08 01:08:23;;;;;;;12.20;4.80;;;;;2.60;101939.00;;;;9705841;30;20200;-77
2021/04/08 01:13:27;;;;;;;10.80;4.43;;;;;2.60;101938.00;;;;9667157;30;20200;-77
2021/04/08 01:18:53;;;;;;;8.97;4.37;;;;;2.60;101947.00;;;;9691359;30;20274;-77
2021/04/08 01:24:13;;;;;;;8.87;4.20;;;;;2.60;101938.00;;;;9690332;30;20208;-77
2021/04/08 01:29:38;;;;;;;6.10;3.93;;;;;2.60;101942.00;;;;9676531;30;20211;-77
2021/04/08 01:34:42;;;;;;;10.07;4.57;;;;;2.50;101952.00;;;;9675898;30;20219;-77
2021/04/08 01:39:45;;;;;;;5.80;4.30;;;;;2.50;101953.00;;;;9675335;30;20231;-77
2021/04/08 01:44:47;;;;;;;9.63;4.77;;;;;2.50;101937.00;;;;9690671;30;20597;-77
2021/04/08 01:49:50;;;;;;;6.33;4.27;;;;;2.50;101939.00;;;;9677123;30;20210;-77
2021/04/08 01:54:57;;;;;;;6.53;4.27;;;;;2.50;101932.00;;;;9676068;30;20271;-78
2021/04/08 02:00:01;;;;;;;7.67;4.73;;;;;2.50;101928.00;;;;9678247;30;20212;-78
2021/04/08 02:05:10;;;;;;;6.87;3.77;;;;;2.50;101945.00;;;;9648049;30;20240;-78
2021/04/08 02:10:13;;;;;;;8.17;4.17;;;;;2.50;101949.00;;;;9647016;30;20200;-78
2021/04/08 02:15:18;;;;;;;9.00;4.30;;;;;2.40;101949.00;;;;9661875;30;20216;-78
2021/04/08 02:20:22;;;;;;;5.57;4.07;;;;;2.40;101947.00;;;;9670249;30;20224;-78
2021/04/08 02:25:29;;;;;;;8.30;4.03;;;;;2.40;101941.00;;;;9681883;30;20239;-78
2021/04/08 02:30:31;;;;;;;7.30;3.80;;;;;2.40;101942.00;;;;9662388;30;20215;-78
2021/04/08 02:35:33;;;;;;;8.70;4.20;;;;;2.40;101940.00;;;;9665262;30;20314;-78
2021/04/08 02:40:34;;;;;;;9.60;3.83;;;;;2.40;101934.00;;;;9710057;30;20230;-78
2021/04/08 02:45:36;;;;;;;8.33;3.73;;;;;2.40;101935.00;;;;9696205;30;20204;-78
2021/04/08 02:50:41;;;;;;;8.07;3.77;;;;;2.50;101933.00;;;;9681378;30;20219;-78
2021/04/08 02:55:46;;;;;;;7.47;3.93;;;;;2.40;101933.00;;;;9681553;30;20200;-78
2021/04/08 03:00:56;;;;;;;9.43;4.60;;;;;2.40;101940.00;;;;9682351;30;20334;-78
2021/04/08 03:06:02;;;;;;;6.73;4.70;;;;;2.40;101942.00;;;;9696071;30;20184;-78
2021/04/08 03:11:06;;;;;;;9.13;4.47;;;;;2.30;101940.00;;;;9694518;30;20188;-78
2021/04/08 03:16:17;;;;;;;9.37;4.73;;;;;2.30;101937.00;;;;9695689;30;20216;-78
2021/04/08 03:21:24;;;;;;;9.17;4.43;;;;;2.20;101942.00;;;;9681293;30;20247;-78
2021/04/08 03:26:27;;;;;;;12.47;4.83;;;;;2.10;101942.00;;;;9695189;30;20227;-78
2021/04/08 03:31:30;;;;;;;6.73;4.63;;;;;2.00;101941.00;;;;9708993;30;20637;-78
2021/04/08 03:36:31;;;;;;;11.17;4.83;;;;;2.10;101952.00;;;;9694409;30;20250;-78
2021/04/08 03:41:38;;;;;;;9.83;4.80;;;;;2.10;101951.00;;;;9694059;30;20228;-78
2021/04/08 03:46:43;;;;;;;6.20;4.30;;;;;2.10;101944.00;;;;9708638;30;20211;-78
2021/04/08 03:51:45;;;;;;;8.87;5.10;;;;;2.10;101940.00;;;;9708490;30;20617;-78
2021/04/08 03:56:49;;;;;;;9.37;4.80;;;;;2.10;101936.00;;;;9708533;30;20204;-77
2021/04/08 04:01:51;;;;;;;7.00;5.20;;;;;2.10;101931.00;;;;9708399;30;20727;-78
2021/04/08 04:06:54;;;;;;;10.83;5.17;;;;;2.10;101924.00;;;;9693344;30;20708;-78
2021/04/08 04:11:57;;;;;;;11.20;5.53;;;;;2.10;101924.00;;;;9693337;30;20665;-78
2021/04/08 04:17:19;;;;;;;9.73;5.67;;;;;2.10;101940.00;;;;9660027;30;20212;-78
2021/04/08 04:22:21;;;;;;;8.90;4.83;;;;;2.10;101933.00;;;;9706092;30;20212;-78
2021/04/08 04:27:22;;;;;;;6.13;4.87;;;;;2.00;101927.00;;;;9678020;30;20255;-78
2021/04/08 04:32:23;;;;;;;8.00;5.10;;;;;2.00;101925.00;;;;9693770;30;20215;-78
2021/04/08 04:37:25;;;;;;;13.13;5.60;;;;;2.00;101922.00;;;;9677575;30;20692;-78
2021/04/08 04:42:27;;;;;;;12.63;5.03;;;;;1.90;101926.00;;;;9662571;30;20239;-78
2021/04/08 04:47:28;;;;;;;9.37;5.37;;;;;1.90;101925.00;;;;9663355;30;20215;-78
2021/04/08 04:52:29;;;;;;;10.53;5.27;;;;;1.90;101931.00;;;;9690598;30;20234;-77
2021/04/08 04:57:31;;;;;;;8.13;4.33;;;;;1.80;101934.00;;;;9689848;30;20206;-77
2021/04/08 05:02:32;;;;;;;7.63;4.70;;;;;1.80;101928.00;;;;9704956;30;20230;-77
2021/04/08 05:07:34;;;;;;;10.13;4.90;;;;;1.80;101938.00;;;;9704468;30;20208;-78
2021/04/08 05:12:35;;;;;;;12.63;5.43;;;;;1.80;101927.00;;;;9675512;30;20192;-77
2021/04/08 05:17:36;;;;;;;12.43;5.37;;;;;1.80;101943.00;;;;9674561;30;20204;-78
2021/04/08 05:22:38;;;;;;;10.27;5.47;;;;;1.90;101943.00;;;;9700822;30;20219;-78
2021/04/08 05:27:40;;;;;;;8.27;5.20;;;;;1.90;101940.00;;;;9684581;30;20591;-78
2021/04/08 05:32:41;;;;;;;13.23;5.00;;;;;2.00;101940.00;;;;9699018;30;20208;-78
2021/04/08 05:37:42;;;;;;;9.73;4.60;;;;;2.10;101945.00;;;;9705947;30;20215;-78
2021/04/08 05:42:44;;;;;;;10.37;5.23;;;;;2.30;101954.00;;;;9676480;30;20274;-78
2021/04/08 05:47:46;;;;;;;7.43;5.10;;;;;2.50;101953.00;;;;9664753;30;20214;-78
2021/04/08 05:52:48;;;;;;;10.63;5.23;;;;;2.70;101947.00;;;;9678406;30;20263;-78
2021/04/08 05:57:49;;;;;;;13.27;5.53;;;;;2.90;101962.00;;;;9690312;30;20215;-78
2021/04/08 06:02:56;;;;;;;10.07;5.43;;;;;3.00;101955.00;;;;9658923;30;20295;-78
2021/04/08 06:07:57;;;;;;;9.10;4.70;;;;;3.10;101964.00;;;;9642085;30;20235;-78
2021/04/08 06:12:59;;;;;;;10.03;5.80;;;;;3.30;101968.00;;;;9670680;30;20204;-78
2021/04/08 06:18:01;;;;;;;10.73;5.33;;;;;3.50;101961.00;;;;9654626;30;20212;-78
2021/04/08 06:23:04;;;;;;;12.80;5.77;;;;;3.80;101966.00;;;;9701184;30;20224;-78
2021/04/08 06:28:05;;;;;;;12.77;5.00;;;;;4.00;101971.00;;;;9690850;30;20250;-78
2021/04/08 06:33:07;;;;;;;8.23;5.20;;;;;4.30;101963.00;;;;9685371;30;20217;-78
2021/04/08 06:38:08;;;;;;;9.53;5.77;;;;;4.50;101968.00;;;;9714858;30;20573;-78
2021/04/08 06:43:11;;;;;;;7.37;4.90;;;;;4.80;101974.00;;;;9649046;30;20236;-77
2021/04/08 06:48:20;;;;;;;8.90;4.93;;;;;5.00;101968.00;;;;9688907;30;20211;-77
2021/04/08 06:53:22;;;;;;;10.07;5.43;;;;;5.30;101968.00;;;;9666261;30;20282;-77
2021/04/08 06:58:23;;;;;;;8.50;5.60;;;;;5.70;101973.00;;;;9681550;30;20322;-77
2021/04/08 07:03:45;;;;;;;10.10;6.47;;;;;6.00;101967.00;;;;9695509;30;20278;-77
2021/04/08 07:08:48;;;;;;;13.97;5.80;;;;;6.40;101976.00;;;;9694608;30;20259;-77
2021/04/08 07:13:49;;;;;;;13.63;5.90;;;;;6.70;101968.00;;;;9680789;30;20211;-78
2021/04/08 07:18:53;;;;;;;11.70;6.07;;;;;6.90;101970.00;;;;9681230;30;20247;-77
2021/04/08 07:24:19;;;;;;;10.07;5.57;;;;;7.10;101972.00;;;;9694981;30;20314;-77
2021/04/08 07:29:43;;;;;;;10.03;6.47;;;;;7.30;101973.00;;;;9679969;30;20207;-77
2021/04/08 07:34:49;;;;;;;9.03;5.97;;;;;7.50;101971.00;;;;9679539;30;20227;-77
2021/04/08 07:39:51;;;;;;;13.87;6.20;;;;;7.70;101973.00;;;;9695260;30;20584;-77
2021/04/08 07:45:04;;;;;;;11.13;6.30;;;;;7.90;101974.00;;;;9680357;30;20224;-77
2021/04/08 07:50:05;;;;;;;10.60;6.20;;;;;7.90;101966.00;;;;9708631;30;20297;-77
2021/04/08 07:55:08;;;;;;;8.67;6.67;;;;;8.00;101964.00;;;;9693936;30;20187;-77
2021/04/08 08:00:28;;;;;;;11.80;6.77;;;;;8.20;101970.00;;;;9695821;30;20219;-77
2021/04/08 08:05:32;;;;;;;9.70;6.13;;;;;8.50;101970.00;;;;9662135;30;20579;-77
2021/04/08 08:10:34;;;;;;;11.97;6.50;;;;;8.70;101976.00;;;;9643813;30;20244;-77
2021/04/08 08:15:41;;;;;;;10.17;5.63;;;;;8.90;101971.00;;;;9643244;30;20296;-77
2021/04/08 08:20:47;;;;;;;11.00;6.63;;;;;9.20;101968.00;;;;9643925;30;20220;-77
2021/04/08 08:25:48;;;;;;;10.87;6.10;;;;;9.50;101974.00;;;;9658379;30;20255;-77
2021/04/08 08:30:54;;;;;;;8.37;4.77;;;;;9.70;101971.00;;;;9657572;30;20204;-77
2021/04/08 08:35:57;;;;;;;8.40;5.13;;;;;9.90;101969.00;;;;9657624;30;20649;-77
2021/04/08 08:40:58;;;;;;;10.23;5.37;;;;;10.00;101965.00;;;;9643072;30;20227;-77
2021/04/08 08:46:01;;;;;;;10.80;5.30;;;;;10.10;101965.00;;;;9656673;30;20216;-77
2021/04/08 08:51:04;;;;;;;8.50;4.83;;;;;10.10;101961.00;;;;9671140;30;20582;-77
2021/04/08 08:56:06;;;;;;;12.23;6.03;;;;;10.20;101970.00;;;;9642244;30;20216;-77
2021/04/08 09:01:07;;;;;;;9.80;5.40;;;;;10.70;101964.00;;;;9660921;30;20219;-77
2021/04/08 09:06:31;;;;;;;9.53;4.77;;;;;10.90;101956.00;;;;9692229;30;20242;-77
2021/04/08 09:11:39;;;;;;;10.37;5.30;;;;;11.30;101952.00;;;;9691296;30;20195;-77
2021/04/08 09:16:46;;;;;;;10.07;5.50;;;;;11.60;101951.00;;;;9688529;30;20665;-78
2021/04/08 09:21:50;;;;;;;12.47;5.60;;;;;11.70;101947.00;;;;9688236;30;20768;-77
2021/04/08 09:26:57;;;;;;;7.47;5.50;;;;;12.00;101948.00;;;;9674406;30;20227;-77
2021/04/08 09:32:27;;;;;;;7.30;5.27;;;;;11.90;101951.00;;;;9670794;30;20264;-78
2021/04/08 09:37:51;;;;;;;11.83;5.40;;;;;12.00;101942.00;;;;9686951;30;20227;-77
2021/04/08 09:43:05;;;;;;;7.73;5.17;;;;;11.90;101944.00;;;;9656469;30;20230;-77
2021/04/08 09:48:21;;;;;;;10.47;6.90;;;;;12.00;101947.00;;;;9679606;30;20199;-78
2021/04/08 09:53:26;;;;;;;9.17;6.07;;;;;12.00;101951.00;;;;9658369;30;20733;-78
2021/04/08 09:58:29;;;;;;;6.13;5.20;;;;;11.90;101949.00;;;;9690310;30;20203;-78
2021/04/08 10:03:38;;;;;;;6.67;4.60;;;;;11.80;101946.00;;;;9681318;30;20219;-78
2021/04/08 10:08:40;;;;;;;12.23;7.23;;;;;11.50;101946.00;;;;9668848;30;20207;-77
2021/04/08 10:13:41;;;;;;;10.40;4.93;;;;;11.60;101938.00;;;;9685498;30;20665;-77
2021/04/08 10:18:44;;;;;;;9.30;5.73;;;;;12.40;101934.00;;;;9657634;30;20208;-77
2021/04/08 10:23:51;;;;;;;7.93;5.57;;;;;13.30;101915.00;;;;9698991;30;20216;-77
2021/04/08 10:28:59;;;;;;;8.97;5.50;;;;;13.90;101933.00;;;;9667526;30;20228;-77
2021/04/08 10:34:18;;;;;;;10.23;4.87;;;;;12.80;101936.00;;;;9691941;30;20219;-77
2021/04/08 10:39:22;;;;;;;9.27;6.00;;;;;12.60;101928.00;;;;9689670;30;20254;-77
2021/04/08 10:44:38;;;;;;;8.03;6.13;;;;;13.00;101921.00;;;;9675176;30;20820;-78
2021/04/08 10:49:47;;;;;;;8.10;5.17;;;;;13.40;101913.00;;;;9669532;30;20200;-77
2021/04/08 10:54:55;;;;;;;9.07;5.23;;;;;14.60;101907.00;;;;9703949;30;20234;-79
2021/04/08 10:59:56;;;;;;;7.57;5.53;;;;;14.70;101917.00;;;;9687366;30;20677;-78
2021/04/08 11:05:05;;;;;;;7.30;5.27;;;;;14.40;101912.00;;;;9689056;30;20523;-78
2021/04/08 11:10:09;;;;;;;7.10;5.37;;;;;14.80;101909.00;;;;9677382;30;20665;-78
2021/04/08 11:15:12;;;;;;;8.17;5.77;;;;;14.60;101907.00;;;;9691801;30;20235;-78
2021/04/08 11:20:26;;;;;;;8.23;5.37;;;;;14.60;101907.00;;;;9695723;30;20621;-78
2021/04/08 11:25:28;;;;;;;8.90;5.93;;;;;14.30;101894.00;;;;9679755;30;20234;-78
2021/04/08 11:30:37;;;;;;;7.87;6.43;;;;;14.50;101905.00;;;;9695198;30;20724;-78
2021/04/08 11:35:41;;;;;;;7.63;6.20;;;;;15.10;101892.00;;;;9703372;30;20215;-78
2021/04/08 11:41:02;;;;;;;6.73;6.03;;;;;16.00;101898.00;;;;9677662;30;20224;-78
2021/04/08 11:46:05;;;;;;;7.93;5.67;;;;;14.70;101898.00;;;;9698825;30;20218;-78
2021/04/08 11:51:06;;;;;;;7.90;6.00;;;;;15.10;101889.00;;;;9660391;30;20212;-78
2021/04/08 11:56:29;;;;;;;9.23;6.50;;;;;13.80;101891.00;;;;9694586;30;20258;-78
2021/04/08 12:01:33;;;;;;;9.63;7.37;;;;;14.30;101870.00;;;;9702046;30;20220;-77
2021/04/08 12:06:40;;;;;;;10.57;7.20;;;;;14.80;101878.00;;;;9671037;30;20231;-77
2021/04/08 12:11:56;;;;;;;10.37;7.07;;;;;14.00;101864.00;;;;9688572;30;20669;-77
2021/04/08 12:17:03;;;;;;;12.00;7.53;;;;;14.90;101854.00;;;;9654666;30;20212;-77
2021/04/08 12:22:08;;;;;;;8.53;6.77;;;;;14.80;101859.00;;;;9644905;30;20256;-78
2021/04/08 12:27:17;;;;;;;8.23;6.93;;;;;15.20;101836.00;;;;9641183;30;20283;-77
2021/04/08 12:32:29;;;;;;;8.07;7.37;;;;;15.40;101832.00;;;;9660661;30;20216;-77
2021/04/08 12:37:30;;;;;;;7.13;5.90;;;;;15.60;101831.00;;;;9701333;30;20215;-77
2021/04/08 12:42:36;;;;;;;9.47;7.00;;;;;15.30;101823.00;;;;9689199;30;20751;-77
2021/04/08 12:47:38;;;;;;;8.87;5.97;;;;;15.60;101820.00;;;;9663996;30;20204;-77
2021/04/08 12:52:40;;;;;;;7.53;6.60;;;;;15.40;101819.00;;;;9701044;30;20211;-77
2021/04/08 12:57:42;;;;;;;10.50;7.10;;;;;15.50;101812.00;;;;9689570;30;20219;-77
2021/04/08 13:02:43;;;;;;;10.50;7.17;;;;;15.50;101806.00;;;;9694101;30;20705;-77
2021/04/08 13:07:45;;;;;;;7.70;6.27;;;;;15.70;101792.00;;;;9660617;30;20673;-77
2021/04/08 13:12:46;;;;;;;8.43;6.90;;;;;15.80;101792.00;;;;9674375;30;20688;-77
2021/04/08 13:17:51;;;;;;;13.20;7.13;;;;;15.70;101777.00;;;;9697861;30;20266;-77
2021/04/08 13:22:52;;;;;;;10.73;6.73;;;;;15.90;101790.00;;;;9658533;30;20680;-77
2021/04/08 13:27:54;;;;;;;10.57;6.67;;;;;15.90;101772.00;;;;9678894;30;20224;-77
2021/04/08 13:32:57;;;;;;;7.80;6.60;;;;;16.20;101757.00;;;;9682114;30;20745;-77
2021/04/08 13:38:01;;;;;;;8.77;6.30;;;;;16.50;101755.00;;;;9673816;30;20204;-77
2021/04/08 13:43:03;;;;;;;8.47;6.60;;;;;17.40;101742.00;;;;9668059;30;20220;-76
2021/04/08 13:48:05;;;;;;;12.37;7.50;;;;;18.60;101734.00;;;;9665718;30;20289;-76
2021/04/08 13:53:06;;;;;;;7.37;6.50;;;;;19.50;101717.00;;;;9680551;30;20238;-76
2021/04/08 13:58:07;;;;;;;10.52;6.65;;;;;20.50;101714.00;;;;9677919;30;20212;-76
2021/04/08 14:03:09;;;;;;;11.27;7.13;;;;;20.50;101721.00;;;;9667062;30;20703;-77
2021/04/08 14:08:10;;;;;;;11.27;7.63;;;;;21.50;101712.00;;;;9689926;30;20207;-77
2021/04/08 14:13:11;;;;;;;8.40;7.47;;;;;22.20;101697.00;;;;9680804;30;20219;-77
2021/04/08 14:18:13;;;;;;;10.67;7.17;;;;;22.70;101693.00;;;;9681936;30;20200;-77
2021/04/08 14:23:14;;;;;;;10.43;7.37;;;;;21.50;101716.00;;;;9691520;30;20216;-77
2021/04/08 14:28:16;;;;;;;8.48;6.45;;;;;22.40;101682.00;;;;9684059;30;20311;-77
2021/04/08 14:33:17;;;;;;;8.10;6.90;;;;;23.60;101670.00;;;;9680704;30;20306;-77
2021/04/08 14:38:19;;;;;;;9.60;6.38;;;;;23.60;101661.00;;;;9684970;30;20232;-77
2021/04/08 14:43:20;;;;;;;9.77;6.88;;;;;23.90;101651.00;;;;9704200;30;20199;-78
2021/04/08 14:48:22;;;;;;;9.05;5.93;;;;;24.60;101651.00;;;;9710994;30;20206;-78
2021/04/08 14:53:25;;;;;;;8.48;6.68;;;;;25.00;101648.00;;;;9662096;30;20212;-78
2021/04/08 14:58:27;;;;;;;10.82;6.25;;;;;24.20;101640.00;;;;9696997;30;20577;-78
2021/04/08 15:03:28;;;;;;;10.23;6.78;;;;;21.90;101626.00;;;;9650335;30;20254;-78
2021/04/08 15:08:30;;;;;;;10.55;6.90;;;;;23.50;101630.00;;;;9687211;30;20219;-78
2021/04/08 15:13:31;;;;;;;7.60;6.22;;;;;22.30;101635.00;;;;9685644;30;20228;-78
2021/04/08 15:18:32;;;;;;;9.13;6.18;;;;;20.00;101633.00;;;;9688136;30;20211;-77
2021/04/08 15:23:34;;;;;;;8.35;6.30;;;;;19.80;101621.00;;;;9671266;30;20578;-77
2021/04/08 15:28:35;;;;;;;9.50;6.93;;;;;18.10;101621.00;;;;9692996;30;20584;-77
2021/04/08 15:33:36;;;;;;;9.77;6.70;;;;;16.70;101625.00;;;;9690336;30;20231;-77
2021/04/08 15:38:38;;;;;;;8.27;7.37;;;;;16.00;101614.00;;;;9680454;30;20203;-77
2021/04/08 15:43:40;;;;;;;10.97;7.27;;;;;15.30;101616.00;;;;9692799;30;20208;-77
2021/04/08 15:48:41;;;;;;;12.43;7.07;;;;;15.00;101598.00;;;;9685520;30;20551;-78
2021/04/08 15:53:43;;;;;;;12.23;7.33;;;;;14.50;101601.00;;;;9688819;30;20223;-77
2021/04/08 15:58:44;;;;;;;10.70;7.70;;;;;14.50;101588.00;;;;9679396;30;20208;-77
2021/04/08 16:03:46;;;;;;;8.40;7.03;;;;;14.10;101589.00;;;;9677568;30;20267;-77
2021/04/08 16:08:48;;;;;;;11.83;7.37;;;;;13.30;101596.00;;;;9684491;30;20211;-77
2021/04/08 16:13:50;;;;;;;9.63;7.70;;;;;13.40;101583.00;;;;9659605;30;20257;-77
2021/04/08 16:18:51;;;;;;;14.20;8.00;;;;;12.90;101588.00;;;;9691974;30;20207;-77
2021/04/08 16:23:52;;;;;;;11.63;7.87;;;;;12.50;101588.00;;;;9683619;30;20238;-77
2021/04/08 16:28:54;;;;;;;13.83;7.53;;;;;12.20;101576.00;;;;9691027;30;20229;-77
2021/04/08 16:33:55;;;;;;;9.77;6.93;;;;;11.80;101571.00;;;;9653916;30;20240;-77
2021/04/08 16:38:57;;;;;;;7.47;6.63;;;;;11.60;101556.00;;;;9693360;30;20212;-77
2021/04/08 16:44:01;;;;;;;9.47;6.67;;;;;11.30;101553.00;;;;9652313;30;20204;-77
2021/04/08 16:49:03;;;;;;;8.10;6.83;;;;;11.20;101562.00;;;;9708990;30;20674;-77
2021/04/08 16:54:05;;;;;;;12.00;7.00;;;;;11.00;101562.00;;;;9681083;30;20587;-77
2021/04/08 16:59:17;;;;;;;10.57;7.17;;;;;10.70;101560.00;;;;9683645;30;20213;-79
2021/04/08 17:04:18;;;;;;;12.43;7.27;;;;;10.70;101549.00;;;;9677893;30;20211;-77
2021/04/08 17:09:20;;;;;;;10.47;7.77;;;;;10.50;101537.00;;;;9702505;30;20261;-77
2021/04/08 17:14:21;;;;;;;9.57;7.37;;;;;10.20;101529.00;;;;9666551;30;20731;-77
2021/04/08 17:19:22;;;;;;;13.57;7.57;;;;;10.00;101535.00;;;;9662723;30;20255;-77
2021/04/08 17:24:24;;;;;;;11.17;7.23;;;;;9.80;101521.00;;;;9683970;30;20231;-77
2021/04/08 17:29:25;;;;;;;11.13;6.67;;;;;9.70;101507.00;;;;9696398;30;20214;-77
2021/04/08 17:34:27;;;;;;;11.60;7.73;;;;;9.60;101507.00;;;;9709452;30;20613;-78
2021/04/08 17:39:28;;;;;;;13.60;7.63;;;;;9.60;101508.00;;;;9689853;30;20634;-78
2021/04/08 17:44:30;;;;;;;9.83;6.77;;;;;9.40;101504.00;;;;9688300;30;20819;-78
2021/04/08 17:49:32;;;;;;;12.17;7.57;;;;;9.30;101494.00;;;;9667844;30;20262;-78
2021/04/08 17:54:34;;;;;;;10.33;6.83;;;;;9.20;101492.00;;;;9688172;30;20210;-80
2021/04/08 17:59:36;;;;;;;12.20;7.27;;;;;9.00;101490.00;;;;9665216;30;20298;-78
2021/04/08 18:04:40;;;;;;;13.10;6.97;;;;;8.80;101491.00;;;;9709294;30;20298;-77
2021/04/08 18:09:41;;;;;;;10.40;7.47;;;;;8.60;101492.00;;;;9728823;30;20230;-78
2021/04/08 18:14:43;;;;;;;11.07;7.30;;;;;8.40;101488.00;;;;9665894;30;20208;-78
2021/04/08 18:19:44;;;;;;;12.10;7.60;;;;;8.30;101486.00;;;;9700320;30;20535;-78
2021/04/08 18:24:46;;;;;;;12.23;8.00;;;;;8.10;101479.00;;;;9697212;30;20236;-78
2021/04/08 18:29:47;;;;;;;10.93;7.63;;;;;8.00;101481.00;;;;9701526;30;20220;-78
2021/04/08 18:34:49;;;;;;;9.17;6.63;;;;;7.90;101478.00;;;;9707212;30;20211;-79
2021/04/08 18:39:52;;;;;;;11.63;7.60;;;;;7.70;101474.00;;;;9697515;30;20214;-79
2021/04/08 18:44:53;;;;;;;18.73;7.63;;;;;7.50;101472.00;;;;9674856;30;20221;-78
2021/04/08 18:49:55;;;;;;;12.13;8.27;;;;;7.30;101466.00;;;;9675869;30;20222;-79
2021/04/08 18:54:56;;;;;;;12.13;7.73;;;;;7.20;101472.00;;;;9671634;30;20208;-79
2021/04/08 18:59:57;;;;;;;10.30;8.10;;;;;7.00;101473.00;;;;9660776;30;20211;-79
2021/04/08 19:05:04;;;;;;;13.10;8.20;;;;;6.90;101471.00;;;;9695009;30;20731;-79
2021/04/08 19:10:07;;;;;;;12.23;8.30;;;;;6.80;101473.00;;;;9653836;30;20289;-79
2021/04/08 19:15:09;;;;;;;18.30;9.37;;;;;6.70;101461.00;;;;9673238;30;20215;-79
2021/04/08 19:20:11;;;;;;;14.67;9.90;;;;;6.60;101460.00;;;;9690693;30;20210;-79
2021/04/08 19:25:14;;;;;;;21.77;11.47;;;;;6.50;101465.00;;;;9680272;30;20228;-78
2021/04/08 19:30:19;;;;;;;19.23;10.03;;;;;6.40;101458.00;;;;9698144;30;20227;-80
2021/04/08 19:35:22;;;;;;;12.93;9.13;;;;;6.40;101465.00;;;;9704012;30;20251;-79
2021/04/08 19:40:25;;;;;;;13.67;9.23;;;;;6.30;101449.00;;;;9675075;30;20243;-79
2021/04/08 19:45:26;;;;;;;16.63;10.07;;;;;6.20;101455.00;;;;9714023;30;20205;-79
2021/04/08 19:50:28;;;;;;;12.23;9.97;;;;;6.10;101448.00;;;;9678505;30;20223;-79
2021/04/08 19:55:30;;;;;;;13.30;8.73;;;;;6.00;101447.00;;;;9695305;30;20191;-79
2021/04/08 20:00:32;;;;;;;15.07;9.50;;;;;6.00;101451.00;;;;9691273;30;20204;-79
2021/04/08 20:05:33;;;;;;;13.20;9.00;;;;;6.00;101438.00;;;;9677024;30;20204;-78
2021/04/08 20:10:35;;;;;;;15.00;10.67;;;;;6.00;101425.00;;;;9672695;30;20223;-78
2021/04/08 20:15:37;;;;;;;11.70;9.20;;;;;5.90;101431.00;;;;9680051;30;20283;-78
2021/04/08 20:20:38;;;;;;;18.00;11.37;;;;;5.90;101416.00;;;;9664945;30;20238;-78
2021/04/08 20:25:39;;;;;;;18.43;10.00;;;;;5.90;101413.00;;;;9708283;30;20231;-78
2021/04/08 20:31:01;;;;;;;13.03;10.07;;;;;5.80;101412.00;;;;9701667;30;20224;-78
2021/04/08 20:36:05;;;;;;;13.67;9.77;;;;;5.80;101404.00;;;;9684087;30;20226;-78
2021/04/08 20:41:09;;;;;;;15.80;11.10;;;;;5.80;101393.00;;;;9696206;30;20208;-79
2021/04/08 20:46:11;;;;;;;15.17;10.17;;;;;5.70;101391.00;;;;9687049;30;20231;-79
2021/04/08 20:51:13;;;;;;;18.47;11.50;;;;;5.70;101387.00;;;;9688387;30;20572;-79
2021/04/08 20:56:15;;;;;;;16.57;11.53;;;;;5.60;101387.00;;;;9692066;30;20212;-78
2021/04/08 21:01:16;;;;;;;18.13;10.03;;;;;5.50;101381.00;;;;9661240;30;20233;-79
2021/04/08 21:06:20;;;;;;;20.07;11.80;;;;;5.50;101369.00;;;;9711973;30;20218;-79
2021/04/08 21:11:21;;;;;;;20.93;11.13;;;;;5.50;101365.00;;;;9671584;30;20242;-78
2021/04/08 21:16:22;;;;;;;14.03;10.83;;;;;5.50;101351.00;;;;9649527;30;20266;-78
2021/04/08 21:21:25;;;;;;;15.67;10.63;;;;;5.40;101345.00;;;;9667148;30;20206;-78
2021/04/08 21:26:26;;;;;;;16.50;10.67;;;;;5.40;101330.00;;;;9665350;30;20246;-78
2021/04/08 21:31:28;;;;;;;12.47;9.57;;;;;5.20;101328.00;;;;9708784;30;20215;-78
2021/04/08 21:36:29;;;;;;;19.43;11.77;;;;;5.10;101325.00;;;;9690112;30;20246;-78
2021/04/08 21:41:31;;;;;;;20.83;12.40;;;;;5.00;101307.00;;;;9700120;30;20507;-78
2021/04/08 21:46:32;;;;;;;17.80;11.17;;;;;4.90;101311.00;;;;9700710;30;20212;-78
2021/04/08 21:51:34;;;;;;;17.20;11.60;;;;;4.80;101306.00;;;;9667351;30;20234;-78
2021/04/08 21:56:37;;;;;;;20.77;13.13;;;;;4.80;101298.00;;;;9675042;30;21035;-77
2021/04/08 22:01:38;;;;;;;21.40;12.97;;;;;4.70;101289.00;;;;9682711;30;20250;-77
2021/04/08 22:06:40;;;;;;;26.23;14.23;;;;;4.70;101287.00;;;;9686373;30;20208;-77
2021/04/08 22:11:42;;;;;;;20.27;13.70;;;;;4.60;101274.00;;;;9661438;30;20288;-79
2021/04/08 22:16:44;;;;;;;20.13;13.20;;;;;4.50;101262.00;;;;9674537;30;20223;-77
2021/04/08 22:21:46;;;;;;;19.27;12.27;;;;;4.40;101265.00;;;;9660404;30;20230;-77
2021/04/08 22:26:48;;;;;;;20.53;12.97;;;;;4.30;101253.00;;;;9679924;30;20236;-78
2021/04/08 22:31:51;;;;;;;23.53;14.87;;;;;4.20;101257.00;;;;9701845;30;20224;-78
2021/04/08 22:36:53;;;;;;;21.13;14.07;;;;;4.00;101248.00;;;;9675676;30;20229;-79
2021/04/08 22:41:55;;;;;;;22.67;12.93;;;;;3.90;101240.00;;;;9696585;30;20204;-79
2021/04/08 22:46:57;;;;;;;22.57;13.20;;;;;3.80;101242.00;;;;9694626;30;20219;-79
2021/04/08 22:51:58;;;;;;;20.63;13.03;;;;;3.70;101240.00;;;;9677869;30;20719;-79
2021/04/08 22:57:00;;;;;;;15.53;11.97;;;;;3.80;101242.00;;;;9704347;30;20658;-79
2021/04/08 23:02:03;;;;;;;18.17;12.67;;;;;3.70;101238.00;;;;9704725;30;20208;-79
2021/04/08 23:07:06;;;;;;;18.50;12.20;;;;;3.60;101234.00;;;;9669903;30;20217;-79
2021/04/08 23:12:09;;;;;;;19.70;12.20;;;;;3.50;101219.00;;;;9699147;30;20214;-79
2021/04/08 23:17:10;;;;;;;16.20;11.87;;;;;3.40;101206.00;;;;9709125;30;20218;-79
2021/04/08 23:22:11;;;;;;;20.03;12.07;;;;;3.50;101211.00;;;;9678595;30;20200;-79
2021/04/08 23:27:13;;;;;;;21.60;12.97;;;;;3.50;101224.00;;;;9665058;30;20223;-79
2021/04/08 23:32:14;;;;;;;17.57;13.73;;;;;3.50;101209.00;;;;9689771;30;20377;-79
2021/04/08 23:37:16;;;;;;;24.10;13.53;;;;;3.50;101201.00;;;;9697698;30;20227;-79
2021/04/08 23:42:17;;;;;;;18.20;13.10;;;;;3.50;101200.00;;;;9680975;30;20223;-79
2021/04/08 23:47:19;;;;;;;16.57;12.13;;;;;3.50;101189.00;;;;9693287;30;20688;-79
2021/04/08 23:52:20;;;;;;;14.80;12.23;;;;;3.40;101191.00;;;;9692472;30;20290;-79
2021/04/08 23:57:21;;;;;;;22.47;12.40;;;;;3.30;101186.00;;;;9677615;30;20208;-79
